Timber Trails, Louisiana
Current Conditions -  °F | °C
As of 9:11 PM on Thursday 18 Dec 2014 (Local Time) from KAEX Reporting Station
Overcast Overcast  
Wind Chill: 52°   Ceiling: 1000
Heat Index: 52°   Visibility: 8mi
Dew Point: 50°   Wind: 3mph
Humidity: 93%   Direction: 60°ENE
Pressure: 30.13"   Gusts: NA
Location:  31.2655°N, 92.4705°W
Report Text: KAEX 190311Z 06003KT 8SM OVC010 11/10 A3013 RMK AO2 CIG 007V013 T01110100
Loading
Personal Weather Stations






























Interactive Weather Map New forecast layout! Learn more

10-Day Weather Forecast

Advertisements
Track Severe Weather on mobile